sensor_id;sensor_type;location;lat;lon;timestamp;P1;durP1;ratioP1;P2;durP2;ratioP2
70008;SDS011;59542;37.950;-122.338;2023-07-13T00:00:07;8.98;;;3.05;;
70008;SDS011;59542;37.950;-122.338;2023-07-13T00:02:36;6.93;;;3.03;;
70008;SDS011;59542;37.950;-122.338;2023-07-13T00:05:03;6.95;;;3.42;;
70008;SDS011;59542;37.950;-122.338;2023-07-13T00:07:30;13.63;;;4.10;;
70008;SDS011;59542;37.950;-122.338;2023-07-13T00:09:56;10.13;;;3.72;;
70008;SDS011;59542;37.950;-122.338;2023-07-13T00:14:59;11.02;;;4.30;;
70008;SDS011;59542;37.950;-122.338;2023-07-13T00:17:28;9.90;;;3.92;;
70008;SDS011;59542;37.950;-122.338;2023-07-13T00:19:55;12.50;;;4.63;;
70008;SDS011;59542;37.950;-122.338;2023-07-13T00:22:22;11.23;;;4.40;;
70008;SDS011;59542;37.950;-122.338;2023-07-13T00:24:54;12.00;;;4.63;;
70008;SDS011;59542;37.950;-122.338;2023-07-13T00:27:23;9.88;;;4.50;;
70008;SDS011;59542;37.950;-122.338;2023-07-13T00:29:51;9.68;;;4.55;;
70008;SDS011;59542;37.950;-122.338;2023-07-13T00:32:18;12.68;;;4.85;;
70008;SDS011;59542;37.950;-122.338;2023-07-13T00:34:44;10.93;;;3.97;;
70008;SDS011;59542;37.950;-122.338;2023-07-13T00:37:11;14.65;;;5.22;;
70008;SDS011;59542;37.950;-122.338;2023-07-13T00:39:37;11.27;;;4.28;;
70008;SDS011;59542;37.950;-122.338;2023-07-13T00:42:04;13.07;;;4.32;;
70008;SDS011;59542;37.950;-122.338;2023-07-13T00:44:31;9.85;;;4.10;;
70008;SDS011;59542;37.950;-122.338;2023-07-13T00:46:57;15.38;;;5.03;;
70008;SDS011;59542;37.950;-122.338;2023-07-13T00:49:24;10.85;;;4.35;;
70008;SDS011;59542;37.950;-122.338;2023-07-13T00:52:00;15.13;;;4.20;;
70008;SDS011;59542;37.950;-122.338;2023-07-13T00:54:35;18.48;;;4.70;;
70008;SDS011;59542;37.950;-122.338;2023-07-13T00:57:06;19.10;;;5.15;;
70008;SDS011;59542;37.950;-122.338;2023-07-13T00:59:36;11.57;;;4.70;;
70008;SDS011;59542;37.950;-122.338;2023-07-13T01:02:07;11.30;;;4.60;;
70008;SDS011;59542;37.950;-122.338;2023-07-13T01:04:34;13.57;;;3.60;;
70008;SDS011;59542;37.950;-122.338;2023-07-13T01:07:00;14.48;;;4.15;;
70008;SDS011;59542;37.950;-122.338;2023-07-13T01:09:27;12.40;;;3.85;;
70008;SDS011;59542;37.950;-122.338;2023-07-13T01:11:53;16.23;;;4.10;;
70008;SDS011;59542;37.950;-122.338;2023-07-13T01:14:19;14.07;;;4.40;;
70008;SDS011;59542;37.950;-122.338;2023-07-13T01:16:46;11.70;;;4.65;;
70008;SDS011;59542;37.950;-122.338;2023-07-13T01:22:06;10.77;;;3.78;;
70008;SDS011;59542;37.950;-122.338;2023-07-13T01:24:37;16.10;;;4.15;;
70008;SDS011;59542;37.950;-122.338;2023-07-13T01:27:05;13.93;;;4.53;;
70008;SDS011;59542;37.950;-122.338;2023-07-13T01:29:34;11.63;;;4.50;;
70008;SDS011;59542;37.950;-122.338;2023-07-13T01:32:11;10.10;;;4.55;;
70008;SDS011;59542;37.950;-122.338;2023-07-13T01:34:40;17.42;;;4.70;;
70008;SDS011;59542;37.950;-122.338;2023-07-13T01:37:08;8.52;;;4.38;;
70008;SDS011;59542;37.950;-122.338;2023-07-13T01:39:35;9.98;;;4.55;;
70008;SDS011;59542;37.950;-122.338;2023-07-13T01:42:02;10.25;;;4.60;;
70008;SDS011;59542;37.950;-122.338;2023-07-13T01:44:28;9.90;;;4.40;;
70008;SDS011;59542;37.950;-122.338;2023-07-13T01:46:55;14.25;;;4.65;;
70008;SDS011;59542;37.950;-122.338;2023-07-13T01:49:21;13.50;;;4.72;;
70008;SDS011;59542;37.950;-122.338;2023-07-13T01:51:47;16.00;;;4.88;;
70008;SDS011;59542;37.950;-122.338;2023-07-13T01:54:14;9.23;;;4.70;;
70008;SDS011;59542;37.950;-122.338;2023-07-13T01:56:40;13.10;;;4.57;;
70008;SDS011;59542;37.950;-122.338;2023-07-13T01:59:07;10.35;;;4.70;;
70008;SDS011;59542;37.950;-122.338;2023-07-13T02:01:34;11.20;;;4.63;;
70008;SDS011;59542;37.950;-122.338;2023-07-13T02:04:01;14.10;;;4.85;;
70008;SDS011;59542;37.950;-122.338;2023-07-13T02:06:28;14.55;;;4.82;;
70008;SDS011;59542;37.950;-122.338;2023-07-13T02:08:54;9.95;;;4.63;;
70008;SDS011;59542;37.950;-122.338;2023-07-13T02:11:21;12.32;;;4.03;;
70008;SDS011;59542;37.950;-122.338;2023-07-13T02:13:47;8.07;;;3.95;;
70008;SDS011;59542;37.950;-122.338;2023-07-13T02:16:14;9.20;;;4.05;;
70008;SDS011;59542;37.950;-122.338;2023-07-13T02:18:40;9.27;;;4.20;;
70008;SDS011;59542;37.950;-122.338;2023-07-13T02:21:06;12.82;;;5.18;;
70008;SDS011;59542;37.950;-122.338;2023-07-13T02:23:33;10.70;;;3.80;;
70008;SDS011;59542;37.950;-122.338;2023-07-13T02:26:01;11.70;;;4.70;;
70008;SDS011;59542;37.950;-122.338;2023-07-13T02:28:29;15.35;;;5.32;;
70008;SDS011;59542;37.950;-122.338;2023-07-13T02:31:03;13.52;;;4.93;;
70008;SDS011;59542;37.950;-122.338;2023-07-13T02:35:56;7.30;;;3.80;;
70008;SDS011;59542;37.950;-122.338;2023-07-13T02:38:23;10.23;;;4.47;;
70008;SDS011;59542;37.950;-122.338;2023-07-13T02:40:49;11.13;;;4.38;;
70008;SDS011;59542;37.950;-122.338;2023-07-13T02:43:16;9.43;;;4.28;;
70008;SDS011;59542;37.950;-122.338;2023-07-13T02:45:45;9.27;;;4.13;;
70008;SDS011;59542;37.950;-122.338;2023-07-13T02:48:13;12.35;;;4.68;;
70008;SDS011;59542;37.950;-122.338;2023-07-13T02:50:40;8.50;;;4.20;;
70008;SDS011;59542;37.950;-122.338;2023-07-13T02:53:06;8.95;;;4.22;;
70008;SDS011;59542;37.950;-122.338;2023-07-13T02:55:32;11.90;;;4.63;;
70008;SDS011;59542;37.950;-122.338;2023-07-13T02:57:58;11.10;;;4.72;;
70008;SDS011;59542;37.950;-122.338;2023-07-13T03:00:25;9.80;;;4.55;;
70008;SDS011;59542;37.950;-122.338;2023-07-13T03:02:51;9.07;;;4.50;;
70008;SDS011;59542;37.950;-122.338;2023-07-13T03:05:18;10.85;;;4.13;;
70008;SDS011;59542;37.950;-122.338;2023-07-13T03:07:44;16.90;;;4.70;;
70008;SDS011;59542;37.950;-122.338;2023-07-13T03:10:10;12.88;;;4.95;;
70008;SDS011;59542;37.950;-122.338;2023-07-13T03:12:37;10.45;;;4.88;;
70008;SDS011;59542;37.950;-122.338;2023-07-13T03:15:03;13.00;;;5.07;;
70008;SDS011;59542;37.950;-122.338;2023-07-13T03:17:30;11.93;;;4.85;;
70008;SDS011;59542;37.950;-122.338;2023-07-13T03:19:57;13.45;;;4.43;;
70008;SDS011;59542;37.950;-122.338;2023-07-13T03:22:23;10.27;;;4.35;;
70008;SDS011;59542;37.950;-122.338;2023-07-13T03:24:49;10.13;;;4.55;;
70008;SDS011;59542;37.950;-122.338;2023-07-13T03:27:16;8.73;;;4.40;;
70008;SDS011;59542;37.950;-122.338;2023-07-13T03:29:43;18.13;;;5.22;;
70008;SDS011;59542;37.950;-122.338;2023-07-13T03:32:10;15.40;;;4.65;;
70008;SDS011;59542;37.950;-122.338;2023-07-13T03:34:36;16.75;;;4.63;;
70008;SDS011;59542;37.950;-122.338;2023-07-13T03:37:02;10.80;;;4.80;;
70008;SDS011;59542;37.950;-122.338;2023-07-13T03:39:29;10.23;;;4.18;;
70008;SDS011;59542;37.950;-122.338;2023-07-13T03:41:55;10.43;;;4.65;;
70008;SDS011;59542;37.950;-122.338;2023-07-13T03:44:21;12.95;;;5.18;;
70008;SDS011;59542;37.950;-122.338;2023-07-13T03:46:48;12.45;;;4.68;;
70008;SDS011;59542;37.950;-122.338;2023-07-13T03:49:14;12.45;;;5.00;;
70008;SDS011;59542;37.950;-122.338;2023-07-13T03:51:40;13.02;;;5.10;;
70008;SDS011;59542;37.950;-122.338;2023-07-13T03:54:06;12.10;;;5.38;;
70008;SDS011;59542;37.950;-122.338;2023-07-13T03:56:33;9.07;;;4.80;;
70008;SDS011;59542;37.950;-122.338;2023-07-13T03:58:59;7.20;;;4.15;;
70008;SDS011;59542;37.950;-122.338;2023-07-13T04:01:25;8.38;;;4.18;;
70008;SDS011;59542;37.950;-122.338;2023-07-13T04:03:52;9.68;;;4.43;;
70008;SDS011;59542;37.950;-122.338;2023-07-13T04:06:20;10.68;;;4.32;;
70008;SDS011;59542;37.950;-122.338;2023-07-13T04:08:53;10.02;;;4.43;;
70008;SDS011;59542;37.950;-122.338;2023-07-13T04:11:22;10.23;;;4.45;;
70008;SDS011;59542;37.950;-122.338;2023-07-13T04:13:49;8.00;;;4.07;;
70008;SDS011;59542;37.950;-122.338;2023-07-13T04:16:17;8.13;;;4.03;;
70008;SDS011;59542;37.950;-122.338;2023-07-13T04:18:45;7.75;;;3.60;;
70008;SDS011;59542;37.950;-122.338;2023-07-13T04:21:12;11.07;;;4.30;;
70008;SDS011;59542;37.950;-122.338;2023-07-13T04:23:40;12.02;;;4.65;;
70008;SDS011;59542;37.950;-122.338;2023-07-13T04:26:06;8.30;;;3.85;;
70008;SDS011;59542;37.950;-122.338;2023-07-13T04:28:33;7.70;;;3.92;;
70008;SDS011;59542;37.950;-122.338;2023-07-13T04:31:00;10.15;;;4.55;;
70008;SDS011;59542;37.950;-122.338;2023-07-13T04:33:26;9.05;;;4.10;;
70008;SDS011;59542;37.950;-122.338;2023-07-13T04:35:53;10.63;;;3.85;;
70008;SDS011;59542;37.950;-122.338;2023-07-13T04:38:26;8.15;;;4.32;;
70008;SDS011;59542;37.950;-122.338;2023-07-13T04:40:58;7.88;;;3.97;;
70008;SDS011;59542;37.950;-122.338;2023-07-13T04:43:26;9.98;;;4.63;;
70008;SDS011;59542;37.950;-122.338;2023-07-13T04:45:53;9.68;;;4.57;;
70008;SDS011;59542;37.950;-122.338;2023-07-13T04:48:20;8.27;;;3.90;;
70008;SDS011;59542;37.950;-122.338;2023-07-13T04:50:46;10.50;;;3.92;;
70008;SDS011;59542;37.950;-122.338;2023-07-13T04:53:13;11.27;;;4.25;;
70008;SDS011;59542;37.950;-122.338;2023-07-13T04:55:40;9.32;;;4.53;;
70008;SDS011;59542;37.950;-122.338;2023-07-13T04:58:06;16.02;;;4.80;;
70008;SDS011;59542;37.950;-122.338;2023-07-13T05:00:32;7.78;;;4.22;;
70008;SDS011;59542;37.950;-122.338;2023-07-13T05:02:58;11.15;;;4.80;;
70008;SDS011;59542;37.950;-122.338;2023-07-13T05:05:26;12.27;;;4.55;;
70008;SDS011;59542;37.950;-122.338;2023-07-13T05:07:53;10.57;;;4.50;;
70008;SDS011;59542;37.950;-122.338;2023-07-13T05:10:19;9.38;;;4.65;;
70008;SDS011;59542;37.950;-122.338;2023-07-13T05:12:46;9.30;;;4.60;;
70008;SDS011;59542;37.950;-122.338;2023-07-13T05:15:12;15.02;;;4.82;;
70008;SDS011;59542;37.950;-122.338;2023-07-13T05:17:38;12.88;;;4.40;;
70008;SDS011;59542;37.950;-122.338;2023-07-13T05:20:06;14.75;;;4.70;;
70008;SDS011;59542;37.950;-122.338;2023-07-13T05:22:36;13.13;;;4.53;;
70008;SDS011;59542;37.950;-122.338;2023-07-13T05:25:04;13.80;;;4.60;;
70008;SDS011;59542;37.950;-122.338;2023-07-13T05:27:31;8.82;;;4.15;;
70008;SDS011;59542;37.950;-122.338;2023-07-13T05:29:58;13.50;;;4.60;;
70008;SDS011;59542;37.950;-122.338;2023-07-13T05:32:24;10.90;;;4.32;;
70008;SDS011;59542;37.950;-122.338;2023-07-13T05:34:50;8.70;;;4.28;;
70008;SDS011;59542;37.950;-122.338;2023-07-13T05:37:17;11.43;;;5.10;;
70008;SDS011;59542;37.950;-122.338;2023-07-13T05:39:43;10.50;;;4.80;;
70008;SDS011;59542;37.950;-122.338;2023-07-13T05:42:09;10.07;;;4.43;;
70008;SDS011;59542;37.950;-122.338;2023-07-13T05:44:36;9.82;;;3.83;;
70008;SDS011;59542;37.950;-122.338;2023-07-13T05:47:02;15.18;;;4.75;;
70008;SDS011;59542;37.950;-122.338;2023-07-13T05:49:28;14.10;;;4.68;;
70008;SDS011;59542;37.950;-122.338;2023-07-13T05:51:55;10.45;;;4.43;;
70008;SDS011;59542;37.950;-122.338;2023-07-13T05:54:22;8.18;;;4.07;;
70008;SDS011;59542;37.950;-122.338;2023-07-13T05:56:48;8.90;;;3.95;;
70008;SDS011;59542;37.950;-122.338;2023-07-13T05:59:14;10.05;;;3.72;;
70008;SDS011;59542;37.950;-122.338;2023-07-13T06:01:41;11.57;;;4.28;;
70008;SDS011;59542;37.950;-122.338;2023-07-13T06:04:07;12.55;;;3.55;;
70008;SDS011;59542;37.950;-122.338;2023-07-13T06:06:33;11.48;;;3.70;;
70008;SDS011;59542;37.950;-122.338;2023-07-13T06:09:00;7.93;;;3.65;;
70008;SDS011;59542;37.950;-122.338;2023-07-13T06:11:26;11.25;;;4.00;;
70008;SDS011;59542;37.950;-122.338;2023-07-13T06:13:55;16.27;;;4.15;;
70008;SDS011;59542;37.950;-122.338;2023-07-13T06:16:22;10.32;;;4.00;;
70008;SDS011;59542;37.950;-122.338;2023-07-13T06:18:50;7.90;;;3.53;;
70008;SDS011;59542;37.950;-122.338;2023-07-13T06:21:18;10.10;;;4.57;;
70008;SDS011;59542;37.950;-122.338;2023-07-13T06:23:46;11.48;;;4.10;;
70008;SDS011;59542;37.950;-122.338;2023-07-13T06:26:14;9.38;;;4.10;;
70008;SDS011;59542;37.950;-122.338;2023-07-13T06:28:40;10.10;;;3.60;;
70008;SDS011;59542;37.950;-122.338;2023-07-13T06:31:07;10.52;;;3.95;;
70008;SDS011;59542;37.950;-122.338;2023-07-13T06:33:34;12.40;;;3.92;;
70008;SDS011;59542;37.950;-122.338;2023-07-13T06:36:01;9.15;;;3.80;;
70008;SDS011;59542;37.950;-122.338;2023-07-13T06:38:28;11.20;;;4.15;;
70008;SDS011;59542;37.950;-122.338;2023-07-13T06:40:55;9.70;;;4.30;;
70008;SDS011;59542;37.950;-122.338;2023-07-13T06:43:21;12.00;;;3.58;;
70008;SDS011;59542;37.950;-122.338;2023-07-13T06:45:50;13.80;;;4.75;;
70008;SDS011;59542;37.950;-122.338;2023-07-13T06:48:17;10.50;;;3.92;;
70008;SDS011;59542;37.950;-122.338;2023-07-13T06:50:44;11.18;;;3.72;;
70008;SDS011;59542;37.950;-122.338;2023-07-13T06:53:12;13.32;;;4.53;;
70008;SDS011;59542;37.950;-122.338;2023-07-13T06:55:39;8.18;;;3.90;;
70008;SDS011;59542;37.950;-122.338;2023-07-13T06:58:06;9.70;;;4.03;;
70008;SDS011;59542;37.950;-122.338;2023-07-13T07:00:32;17.65;;;4.90;;
70008;SDS011;59542;37.950;-122.338;2023-07-13T07:02:58;12.55;;;4.00;;
70008;SDS011;59542;37.950;-122.338;2023-07-13T07:05:25;11.80;;;4.18;;
70008;SDS011;59542;37.950;-122.338;2023-07-13T07:07:51;13.90;;;4.28;;
70008;SDS011;59542;37.950;-122.338;2023-07-13T07:10:19;13.27;;;4.22;;
70008;SDS011;59542;37.950;-122.338;2023-07-13T07:12:46;17.70;;;4.95;;
70008;SDS011;59542;37.950;-122.338;2023-07-13T07:15:12;10.40;;;3.85;;
70008;SDS011;59542;37.950;-122.338;2023-07-13T07:17:38;14.38;;;3.78;;
70008;SDS011;59542;37.950;-122.338;2023-07-13T07:20:05;11.60;;;4.30;;
70008;SDS011;59542;37.950;-122.338;2023-07-13T07:22:32;12.38;;;4.07;;
70008;SDS011;59542;37.950;-122.338;2023-07-13T07:24:58;13.20;;;4.03;;
70008;SDS011;59542;37.950;-122.338;2023-07-13T07:27:25;13.07;;;3.55;;
70008;SDS011;59542;37.950;-122.338;2023-07-13T07:29:52;10.43;;;3.85;;
70008;SDS011;59542;37.950;-122.338;2023-07-13T07:32:19;15.98;;;4.65;;
70008;SDS011;59542;37.950;-122.338;2023-07-13T07:34:46;15.82;;;3.83;;
70008;SDS011;59542;37.950;-122.338;2023-07-13T07:37:13;20.20;;;4.32;;
70008;SDS011;59542;37.950;-122.338;2023-07-13T07:39:40;8.25;;;3.65;;
70008;SDS011;59542;37.950;-122.338;2023-07-13T07:42:06;12.05;;;4.22;;
70008;SDS011;59542;37.950;-122.338;2023-07-13T07:44:32;12.18;;;4.88;;
70008;SDS011;59542;37.950;-122.338;2023-07-13T07:46:59;11.18;;;3.92;;
70008;SDS011;59542;37.950;-122.338;2023-07-13T07:49:25;11.82;;;3.83;;
70008;SDS011;59542;37.950;-122.338;2023-07-13T07:51:52;15.00;;;3.90;;
70008;SDS011;59542;37.950;-122.338;2023-07-13T07:54:18;11.20;;;3.80;;
70008;SDS011;59542;37.950;-122.338;2023-07-13T07:56:44;13.23;;;3.67;;
70008;SDS011;59542;37.950;-122.338;2023-07-13T07:59:11;15.15;;;4.47;;
70008;SDS011;59542;37.950;-122.338;2023-07-13T08:01:37;9.75;;;3.72;;
70008;SDS011;59542;37.950;-122.338;2023-07-13T08:04:03;14.50;;;4.03;;
70008;SDS011;59542;37.950;-122.338;2023-07-13T08:06:31;11.75;;;3.70;;
70008;SDS011;59542;37.950;-122.338;2023-07-13T08:08:59;10.00;;;3.75;;
70008;SDS011;59542;37.950;-122.338;2023-07-13T08:11:25;11.30;;;4.40;;
70008;SDS011;59542;37.950;-122.338;2023-07-13T08:13:51;13.63;;;3.78;;
70008;SDS011;59542;37.950;-122.338;2023-07-13T08:16:18;12.48;;;3.65;;
70008;SDS011;59542;37.950;-122.338;2023-07-13T08:18:44;11.00;;;4.28;;
70008;SDS011;59542;37.950;-122.338;2023-07-13T08:21:10;12.60;;;3.80;;
70008;SDS011;59542;37.950;-122.338;2023-07-13T08:23:36;12.65;;;3.63;;
70008;SDS011;59542;37.950;-122.338;2023-07-13T08:26:04;10.70;;;3.53;;
70008;SDS011;59542;37.950;-122.338;2023-07-13T08:28:30;9.38;;;3.50;;
70008;SDS011;59542;37.950;-122.338;2023-07-13T08:31:01;6.45;;;3.35;;
70008;SDS011;59542;37.950;-122.338;2023-07-13T08:33:29;11.25;;;3.80;;
70008;SDS011;59542;37.950;-122.338;2023-07-13T08:35:55;14.73;;;4.18;;
70008;SDS011;59542;37.950;-122.338;2023-07-13T08:38:22;8.52;;;3.50;;
70008;SDS011;59542;37.950;-122.338;2023-07-13T08:40:53;8.30;;;3.65;;
70008;SDS011;59542;37.950;-122.338;2023-07-13T08:43:28;8.40;;;3.08;;
70008;SDS011;59542;37.950;-122.338;2023-07-13T08:48:35;9.00;;;3.28;;
70008;SDS011;59542;37.950;-122.338;2023-07-13T08:51:24;10.52;;;3.60;;
70008;SDS011;59542;37.950;-122.338;2023-07-13T08:54:11;12.90;;;4.43;;
70008;SDS011;59542;37.950;-122.338;2023-07-13T08:56:38;11.18;;;3.38;;
70008;SDS011;59542;37.950;-122.338;2023-07-13T08:59:11;5.75;;;3.35;;
70008;SDS011;59542;37.950;-122.338;2023-07-13T09:04:43;12.02;;;3.80;;
70008;SDS011;59542;37.950;-122.338;2023-07-13T09:07:24;7.60;;;3.25;;
70008;SDS011;59542;37.950;-122.338;2023-07-13T09:15:32;9.50;;;3.00;;
70008;SDS011;59542;37.950;-122.338;2023-07-13T09:21:09;10.55;;;3.15;;
70008;SDS011;59542;37.950;-122.338;2023-07-13T09:23:46;10.95;;;4.25;;
70008;SDS011;59542;37.950;-122.338;2023-07-13T09:26:17;12.75;;;3.72;;
70008;SDS011;59542;37.950;-122.338;2023-07-13T09:28:58;10.90;;;3.90;;
70008;SDS011;59542;37.950;-122.338;2023-07-13T09:31:39;11.68;;;3.30;;
70008;SDS011;59542;37.950;-122.338;2023-07-13T09:34:11;9.45;;;2.90;;
70008;SDS011;59542;37.950;-122.338;2023-07-13T09:36:40;7.68;;;2.88;;
70008;SDS011;59542;37.950;-122.338;2023-07-13T09:42:06;7.80;;;2.70;;
70008;SDS011;59542;37.950;-122.338;2023-07-13T09:47:19;9.95;;;3.13;;
70008;SDS011;59542;37.950;-122.338;2023-07-13T09:49:58;9.27;;;2.92;;
70008;SDS011;59542;37.950;-122.338;2023-07-13T09:52:27;11.38;;;3.15;;
70008;SDS011;59542;37.950;-122.338;2023-07-13T09:55:04;9.23;;;3.25;;
70008;SDS011;59542;37.950;-122.338;2023-07-13T09:57:48;8.38;;;3.63;;
70008;SDS011;59542;37.950;-122.338;2023-07-13T10:00:54;9.50;;;3.97;;
70008;SDS011;59542;37.950;-122.338;2023-07-13T10:03:31;6.60;;;3.63;;
70008;SDS011;59542;37.950;-122.338;2023-07-13T10:08:38;8.27;;;3.47;;
70008;SDS011;59542;37.950;-122.338;2023-07-13T10:11:24;13.98;;;4.15;;
70008;SDS011;59542;37.950;-122.338;2023-07-13T10:13:58;6.38;;;3.33;;
70008;SDS011;59542;37.950;-122.338;2023-07-13T10:16:34;9.20;;;3.63;;
70008;SDS011;59542;37.950;-122.338;2023-07-13T10:21:47;7.47;;;3.70;;
70008;SDS011;59542;37.950;-122.338;2023-07-13T10:24:22;9.10;;;3.58;;
70008;SDS011;59542;37.950;-122.338;2023-07-13T10:27:01;5.55;;;3.45;;
70008;SDS011;59542;37.950;-122.338;2023-07-13T10:32:09;7.85;;;3.42;;
70008;SDS011;59542;37.950;-122.338;2023-07-13T10:34:40;11.98;;;3.50;;
70008;SDS011;59542;37.950;-122.338;2023-07-13T10:37:19;11.88;;;4.82;;
70008;SDS011;59542;37.950;-122.338;2023-07-13T10:39:50;11.52;;;4.00;;
70008;SDS011;59542;37.950;-122.338;2023-07-13T10:42:29;8.48;;;3.40;;
70008;SDS011;59542;37.950;-122.338;2023-07-13T10:45:00;10.57;;;4.18;;
70008;SDS011;59542;37.950;-122.338;2023-07-13T10:47:27;6.47;;;3.70;;
70008;SDS011;59542;37.950;-122.338;2023-07-13T10:49:54;9.02;;;4.63;;
70008;SDS011;59542;37.950;-122.338;2023-07-13T10:52:42;7.93;;;4.13;;
70008;SDS011;59542;37.950;-122.338;2023-07-13T10:58:19;6.57;;;2.55;;
70008;SDS011;59542;37.950;-122.338;2023-07-13T11:00:56;8.27;;;3.10;;
70008;SDS011;59542;37.950;-122.338;2023-07-13T11:03:25;5.32;;;2.70;;
70008;SDS011;59542;37.950;-122.338;2023-07-13T11:18:49;9.80;;;4.55;;
70008;SDS011;59542;37.950;-122.338;2023-07-13T11:21:20;8.77;;;5.22;;
70008;SDS011;59542;37.950;-122.338;2023-07-13T11:23:55;9.95;;;5.40;;
70008;SDS011;59542;37.950;-122.338;2023-07-13T11:26:42;12.88;;;5.10;;
70008;SDS011;59542;37.950;-122.338;2023-07-13T11:31:51;10.07;;;4.68;;
70008;SDS011;59542;37.950;-122.338;2023-07-13T11:34:23;8.82;;;5.03;;
70008;SDS011;59542;37.950;-122.338;2023-07-13T11:36:56;8.73;;;4.75;;
70008;SDS011;59542;37.950;-122.338;2023-07-13T11:42:02;7.60;;;4.32;;
70008;SDS011;59542;37.950;-122.338;2023-07-13T11:44:32;9.45;;;5.05;;
70008;SDS011;59542;37.950;-122.338;2023-07-13T11:47:00;8.73;;;5.35;;
70008;SDS011;59542;37.950;-122.338;2023-07-13T11:49:44;10.68;;;5.35;;
70008;SDS011;59542;37.950;-122.338;2023-07-13T11:52:22;11.95;;;4.65;;
70008;SDS011;59542;37.950;-122.338;2023-07-13T11:54:55;12.23;;;5.35;;
70008;SDS011;59542;37.950;-122.338;2023-07-13T11:57:31;11.90;;;6.80;;
70008;SDS011;59542;37.950;-122.338;2023-07-13T12:02:35;11.13;;;7.00;;
70008;SDS011;59542;37.950;-122.338;2023-07-13T12:05:05;11.35;;;6.78;;
70008;SDS011;59542;37.950;-122.338;2023-07-13T12:07:36;12.45;;;6.97;;
70008;SDS011;59542;37.950;-122.338;2023-07-13T12:10:23;11.90;;;6.40;;
70008;SDS011;59542;37.950;-122.338;2023-07-13T12:13:01;10.13;;;6.38;;
70008;SDS011;59542;37.950;-122.338;2023-07-13T12:15:37;12.65;;;5.90;;
70008;SDS011;59542;37.950;-122.338;2023-07-13T12:18:16;10.90;;;7.13;;
70008;SDS011;59542;37.950;-122.338;2023-07-13T12:20:45;13.13;;;7.18;;
70008;SDS011;59542;37.950;-122.338;2023-07-13T12:23:28;9.90;;;6.45;;
70008;SDS011;59542;37.950;-122.338;2023-07-13T12:26:01;12.93;;;6.95;;
70008;SDS011;59542;37.950;-122.338;2023-07-13T12:28:34;15.30;;;6.63;;
70008;SDS011;59542;37.950;-122.338;2023-07-13T12:31:03;12.10;;;7.15;;
70008;SDS011;59542;37.950;-122.338;2023-07-13T12:33:32;10.55;;;6.85;;
70008;SDS011;59542;37.950;-122.338;2023-07-13T12:36:00;11.65;;;6.80;;
70008;SDS011;59542;37.950;-122.338;2023-07-13T12:38:29;10.23;;;6.20;;
70008;SDS011;59542;37.950;-122.338;2023-07-13T12:40:57;10.00;;;6.70;;
70008;SDS011;59542;37.950;-122.338;2023-07-13T12:43:25;12.02;;;7.13;;
70008;SDS011;59542;37.950;-122.338;2023-07-13T12:45:56;9.95;;;6.70;;
70008;SDS011;59542;37.950;-122.338;2023-07-13T12:48:28;13.88;;;6.60;;
70008;SDS011;59542;37.950;-122.338;2023-07-13T12:50:55;9.50;;;6.85;;
70008;SDS011;59542;37.950;-122.338;2023-07-13T12:53:29;9.48;;;6.40;;
70008;SDS011;59542;37.950;-122.338;2023-07-13T12:56:02;10.85;;;6.45;;
70008;SDS011;59542;37.950;-122.338;2023-07-13T12:58:30;11.70;;;6.93;;
70008;SDS011;59542;37.950;-122.338;2023-07-13T13:01:06;14.02;;;7.18;;
70008;SDS011;59542;37.950;-122.338;2023-07-13T13:03:38;14.77;;;7.68;;
70008;SDS011;59542;37.950;-122.338;2023-07-13T13:06:18;11.15;;;7.13;;
70008;SDS011;59542;37.950;-122.338;2023-07-13T13:08:52;14.20;;;7.85;;
70008;SDS011;59542;37.950;-122.338;2023-07-13T13:11:20;11.93;;;7.70;;
70008;SDS011;59542;37.950;-122.338;2023-07-13T13:13:48;14.75;;;8.40;;
70008;SDS011;59542;37.950;-122.338;2023-07-13T13:18:57;12.77;;;8.07;;
70008;SDS011;59542;37.950;-122.338;2023-07-13T13:21:27;17.38;;;9.02;;
70008;SDS011;59542;37.950;-122.338;2023-07-13T13:23:54;12.35;;;8.38;;
70008;SDS011;59542;37.950;-122.338;2023-07-13T13:26:21;15.93;;;8.93;;
70008;SDS011;59542;37.950;-122.338;2023-07-13T13:28:48;10.18;;;7.57;;
70008;SDS011;59542;37.950;-122.338;2023-07-13T13:31:14;9.93;;;6.38;;
70008;SDS011;59542;37.950;-122.338;2023-07-13T13:33:41;10.15;;;7.18;;
70008;SDS011;59542;37.950;-122.338;2023-07-13T13:36:14;10.18;;;7.05;;
70008;SDS011;59542;37.950;-122.338;2023-07-13T13:38:45;11.73;;;6.90;;
70008;SDS011;59542;37.950;-122.338;2023-07-13T13:41:13;11.48;;;7.45;;
70008;SDS011;59542;37.950;-122.338;2023-07-13T13:43:41;9.52;;;6.38;;
70008;SDS011;59542;37.950;-122.338;2023-07-13T13:48:47;9.18;;;6.20;;
70008;SDS011;59542;37.950;-122.338;2023-07-13T13:51:18;8.05;;;6.35;;
70008;SDS011;59542;37.950;-122.338;2023-07-13T13:53:46;9.82;;;6.30;;
70008;SDS011;59542;37.950;-122.338;2023-07-13T13:56:13;8.57;;;5.97;;
70008;SDS011;59542;37.950;-122.338;2023-07-13T13:58:40;7.70;;;5.75;;
70008;SDS011;59542;37.950;-122.338;2023-07-13T14:01:14;9.75;;;6.15;;
70008;SDS011;59542;37.950;-122.338;2023-07-13T14:03:43;8.65;;;5.88;;
70008;SDS011;59542;37.950;-122.338;2023-07-13T14:06:11;8.55;;;5.88;;
70008;SDS011;59542;37.950;-122.338;2023-07-13T14:08:39;7.38;;;4.75;;
70008;SDS011;59542;37.950;-122.338;2023-07-13T14:11:05;8.27;;;5.78;;
70008;SDS011;59542;37.950;-122.338;2023-07-13T14:13:47;9.95;;;5.95;;
70008;SDS011;59542;37.950;-122.338;2023-07-13T14:16:17;7.53;;;5.72;;
70008;SDS011;59542;37.950;-122.338;2023-07-13T14:18:46;7.45;;;5.45;;
70008;SDS011;59542;37.950;-122.338;2023-07-13T14:21:15;7.28;;;5.47;;
70008;SDS011;59542;37.950;-122.338;2023-07-13T14:23:46;11.27;;;5.80;;
70008;SDS011;59542;37.950;-122.338;2023-07-13T14:26:17;10.18;;;5.57;;
70008;SDS011;59542;37.950;-122.338;2023-07-13T14:31:16;10.43;;;6.00;;
70008;SDS011;59542;37.950;-122.338;2023-07-13T14:33:43;7.82;;;5.03;;
70008;SDS011;59542;37.950;-122.338;2023-07-13T14:36:31;6.03;;;5.20;;
70008;SDS011;59542;37.950;-122.338;2023-07-13T14:38:57;9.45;;;5.45;;
70008;SDS011;59542;37.950;-122.338;2023-07-13T14:41:26;7.32;;;5.35;;
70008;SDS011;59542;37.950;-122.338;2023-07-13T14:43:53;9.77;;;5.93;;
70008;SDS011;59542;37.950;-122.338;2023-07-13T14:46:29;7.53;;;4.78;;
70008;SDS011;59542;37.950;-122.338;2023-07-13T14:49:03;7.97;;;5.15;;
70008;SDS011;59542;37.950;-122.338;2023-07-13T14:51:33;7.00;;;5.05;;
70008;SDS011;59542;37.950;-122.338;2023-07-13T14:54:04;7.10;;;3.97;;
70008;SDS011;59542;37.950;-122.338;2023-07-13T14:56:31;7.47;;;4.72;;
70008;SDS011;59542;37.950;-122.338;2023-07-13T14:58:57;5.68;;;4.68;;
70008;SDS011;59542;37.950;-122.338;2023-07-13T15:01:24;7.28;;;4.40;;
70008;SDS011;59542;37.950;-122.338;2023-07-13T15:03:51;5.38;;;3.85;;
70008;SDS011;59542;37.950;-122.338;2023-07-13T15:06:18;6.68;;;4.20;;
70008;SDS011;59542;37.950;-122.338;2023-07-13T15:08:45;5.68;;;3.65;;
70008;SDS011;59542;37.950;-122.338;2023-07-13T15:11:12;6.22;;;4.07;;
70008;SDS011;59542;37.950;-122.338;2023-07-13T15:13:39;7.32;;;4.68;;
70008;SDS011;59542;37.950;-122.338;2023-07-13T15:16:15;4.90;;;3.20;;
70008;SDS011;59542;37.950;-122.338;2023-07-13T15:18:43;4.65;;;3.78;;